sensor_id;sensor_type;location;lat;lon;timestamp;P1;durP1;ratioP1;P2;durP2;ratioP2
3549;SDS011;45572;48.804;8.330;2023-10-13T00:01:34;8.13;;;4.53;;
3549;SDS011;45572;48.804;8.330;2023-10-13T00:04:02;9.90;;;4.67;;
3549;SDS011;45572;48.804;8.330;2023-10-13T00:06:32;9.37;;;4.60;;
3549;SDS011;45572;48.804;8.330;2023-10-13T00:08:59;6.10;;;4.07;;
3549;SDS011;45572;48.804;8.330;2023-10-13T00:11:28;12.00;;;4.47;;
3549;SDS011;45572;48.804;8.330;2023-10-13T00:13:56;6.23;;;4.00;;
3549;SDS011;45572;48.804;8.330;2023-10-13T00:16:24;6.70;;;4.60;;
3549;SDS011;45572;48.804;8.330;2023-10-13T00:18:53;7.17;;;4.63;;
3549;SDS011;45572;48.804;8.330;2023-10-13T00:21:23;6.20;;;4.20;;
3549;SDS011;45572;48.804;8.330;2023-10-13T00:23:58;8.70;;;5.30;;
3549;SDS011;45572;48.804;8.330;2023-10-13T00:26:29;9.33;;;4.87;;
3549;SDS011;45572;48.804;8.330;2023-10-13T00:28:59;9.50;;;5.30;;
3549;SDS011;45572;48.804;8.330;2023-10-13T00:31:35;8.30;;;5.27;;
3549;SDS011;45572;48.804;8.330;2023-10-13T00:34:05;9.00;;;5.20;;
3549;SDS011;45572;48.804;8.330;2023-10-13T00:36:37;12.27;;;5.00;;
3549;SDS011;45572;48.804;8.330;2023-10-13T00:39:14;11.60;;;4.53;;
3549;SDS011;45572;48.804;8.330;2023-10-13T00:41:43;11.20;;;5.57;;
3549;SDS011;45572;48.804;8.330;2023-10-13T00:44:23;10.37;;;4.80;;
3549;SDS011;45572;48.804;8.330;2023-10-13T00:46:58;6.50;;;4.63;;
3549;SDS011;45572;48.804;8.330;2023-10-13T00:49:25;9.93;;;5.03;;
3549;SDS011;45572;48.804;8.330;2023-10-13T00:51:56;7.70;;;4.53;;
3549;SDS011;45572;48.804;8.330;2023-10-13T00:54:24;13.13;;;4.73;;
3549;SDS011;45572;48.804;8.330;2023-10-13T00:56:54;8.90;;;4.33;;
3549;SDS011;45572;48.804;8.330;2023-10-13T00:59:31;7.80;;;4.80;;
3549;SDS011;45572;48.804;8.330;2023-10-13T01:02:08;11.00;;;5.00;;
3549;SDS011;45572;48.804;8.330;2023-10-13T01:04:50;11.27;;;4.93;;
3549;SDS011;45572;48.804;8.330;2023-10-13T01:07:20;16.63;;;5.70;;
3549;SDS011;45572;48.804;8.330;2023-10-13T01:09:50;9.50;;;4.40;;
3549;SDS011;45572;48.804;8.330;2023-10-13T01:12:19;9.10;;;5.20;;
3549;SDS011;45572;48.804;8.330;2023-10-13T01:14:45;15.20;;;4.67;;
3549;SDS011;45572;48.804;8.330;2023-10-13T01:17:15;11.53;;;4.77;;
3549;SDS011;45572;48.804;8.330;2023-10-13T01:19:42;8.37;;;4.40;;
3549;SDS011;45572;48.804;8.330;2023-10-13T01:22:12;12.53;;;4.60;;
3549;SDS011;45572;48.804;8.330;2023-10-13T01:24:40;12.83;;;5.30;;
3549;SDS011;45572;48.804;8.330;2023-10-13T01:27:08;6.90;;;3.97;;
3549;SDS011;45572;48.804;8.330;2023-10-13T01:29:43;8.93;;;3.87;;
3549;SDS011;45572;48.804;8.330;2023-10-13T01:32:14;11.23;;;5.93;;
3549;SDS011;45572;48.804;8.330;2023-10-13T01:34:41;6.97;;;4.70;;
3549;SDS011;45572;48.804;8.330;2023-10-13T01:37:12;8.83;;;5.20;;
3549;SDS011;45572;48.804;8.330;2023-10-13T01:39:40;11.00;;;6.00;;
3549;SDS011;45572;48.804;8.330;2023-10-13T01:42:08;12.37;;;5.70;;
3549;SDS011;45572;48.804;8.330;2023-10-13T01:44:35;9.43;;;5.70;;
3549;SDS011;45572;48.804;8.330;2023-10-13T01:47:02;9.27;;;6.30;;
3549;SDS011;45572;48.804;8.330;2023-10-13T01:49:32;8.53;;;5.53;;
3549;SDS011;45572;48.804;8.330;2023-10-13T01:52:07;9.73;;;4.73;;
3549;SDS011;45572;48.804;8.330;2023-10-13T01:54:38;13.60;;;5.63;;
3549;SDS011;45572;48.804;8.330;2023-10-13T01:57:08;10.77;;;3.73;;
3549;SDS011;45572;48.804;8.330;2023-10-13T01:59:39;9.77;;;4.77;;
3549;SDS011;45572;48.804;8.330;2023-10-13T02:02:10;7.10;;;3.70;;
3549;SDS011;45572;48.804;8.330;2023-10-13T02:04:39;12.63;;;5.13;;
3549;SDS011;45572;48.804;8.330;2023-10-13T02:07:09;7.27;;;4.13;;
3549;SDS011;45572;48.804;8.330;2023-10-13T02:09:41;11.43;;;5.17;;
3549;SDS011;45572;48.804;8.330;2023-10-13T02:12:10;8.30;;;5.80;;
3549;SDS011;45572;48.804;8.330;2023-10-13T02:14:38;8.27;;;4.63;;
3549;SDS011;45572;48.804;8.330;2023-10-13T02:17:08;11.30;;;5.07;;
3549;SDS011;45572;48.804;8.330;2023-10-13T02:19:39;9.53;;;5.30;;
3549;SDS011;45572;48.804;8.330;2023-10-13T02:22:11;13.20;;;4.50;;
3549;SDS011;45572;48.804;8.330;2023-10-13T02:24:50;8.73;;;4.87;;
3549;SDS011;45572;48.804;8.330;2023-10-13T02:27:20;8.33;;;4.40;;
3549;SDS011;45572;48.804;8.330;2023-10-13T02:29:49;8.90;;;4.60;;
3549;SDS011;45572;48.804;8.330;2023-10-13T02:32:24;9.17;;;4.43;;
3549;SDS011;45572;48.804;8.330;2023-10-13T02:34:53;11.80;;;5.90;;
3549;SDS011;45572;48.804;8.330;2023-10-13T02:37:24;10.60;;;4.50;;
3549;SDS011;45572;48.804;8.330;2023-10-13T02:39:54;13.10;;;4.90;;
3549;SDS011;45572;48.804;8.330;2023-10-13T02:42:25;11.33;;;6.23;;
3549;SDS011;45572;48.804;8.330;2023-10-13T02:44:52;8.60;;;4.07;;
3549;SDS011;45572;48.804;8.330;2023-10-13T02:47:23;11.23;;;5.17;;
3549;SDS011;45572;48.804;8.330;2023-10-13T02:49:50;7.67;;;4.30;;
3549;SDS011;45572;48.804;8.330;2023-10-13T02:52:18;8.40;;;4.63;;
3549;SDS011;45572;48.804;8.330;2023-10-13T02:54:46;9.00;;;5.20;;
3549;SDS011;45572;48.804;8.330;2023-10-13T02:57:17;10.63;;;4.90;;
3549;SDS011;45572;48.804;8.330;2023-10-13T02:59:46;10.50;;;4.07;;
3549;SDS011;45572;48.804;8.330;2023-10-13T03:02:13;9.90;;;5.27;;
3549;SDS011;45572;48.804;8.330;2023-10-13T03:04:50;11.90;;;5.10;;
3549;SDS011;45572;48.804;8.330;2023-10-13T03:07:17;5.30;;;3.83;;
3549;SDS011;45572;48.804;8.330;2023-10-13T03:09:50;11.73;;;5.03;;
3549;SDS011;45572;48.804;8.330;2023-10-13T03:12:18;9.00;;;4.93;;
3549;SDS011;45572;48.804;8.330;2023-10-13T03:14:47;6.95;;;4.40;;
3549;SDS011;45572;48.804;8.330;2023-10-13T03:17:14;8.05;;;4.65;;
3549;SDS011;45572;48.804;8.330;2023-10-13T03:19:43;7.90;;;5.47;;
3549;SDS011;45572;48.804;8.330;2023-10-13T03:22:17;8.50;;;4.53;;
3549;SDS011;45572;48.804;8.330;2023-10-13T03:24:44;8.75;;;5.30;;
3549;SDS011;45572;48.804;8.330;2023-10-13T03:27:13;6.22;;;4.18;;
3549;SDS011;45572;48.804;8.330;2023-10-13T03:29:43;8.38;;;4.72;;
3549;SDS011;45572;48.804;8.330;2023-10-13T03:32:15;12.75;;;5.50;;
3549;SDS011;45572;48.804;8.330;2023-10-13T03:34:44;10.02;;;4.45;;
3549;SDS011;45572;48.804;8.330;2023-10-13T03:37:21;7.70;;;3.85;;
3549;SDS011;45572;48.804;8.330;2023-10-13T03:40:04;8.60;;;4.70;;
3549;SDS011;45572;48.804;8.330;2023-10-13T03:42:42;11.73;;;4.55;;
3549;SDS011;45572;48.804;8.330;2023-10-13T03:45:15;12.70;;;5.28;;
3549;SDS011;45572;48.804;8.330;2023-10-13T03:47:46;14.20;;;5.20;;
3549;SDS011;45572;48.804;8.330;2023-10-13T03:50:14;10.65;;;6.32;;
3549;SDS011;45572;48.804;8.330;2023-10-13T03:52:42;11.38;;;5.63;;
3549;SDS011;45572;48.804;8.330;2023-10-13T03:55:10;15.30;;;5.32;;
3549;SDS011;45572;48.804;8.330;2023-10-13T03:57:44;11.18;;;5.35;;
3549;SDS011;45572;48.804;8.330;2023-10-13T04:00:16;7.88;;;5.03;;
3549;SDS011;45572;48.804;8.330;2023-10-13T04:02:52;12.40;;;5.60;;
3549;SDS011;45572;48.804;8.330;2023-10-13T04:05:33;9.98;;;4.82;;
3549;SDS011;45572;48.804;8.330;2023-10-13T04:08:07;10.43;;;4.80;;
3549;SDS011;45572;48.804;8.330;2023-10-13T04:10:49;10.60;;;5.72;;
3549;SDS011;45572;48.804;8.330;2023-10-13T04:13:32;8.05;;;5.05;;
3549;SDS011;45572;48.804;8.330;2023-10-13T04:16:14;9.85;;;5.38;;
3549;SDS011;45572;48.804;8.330;2023-10-13T04:19:02;9.80;;;5.53;;
3549;SDS011;45572;48.804;8.330;2023-10-13T04:21:35;8.40;;;4.57;;
3549;SDS011;45572;48.804;8.330;2023-10-13T04:24:09;8.70;;;4.82;;
3549;SDS011;45572;48.804;8.330;2023-10-13T04:26:54;10.18;;;5.07;;
3549;SDS011;45572;48.804;8.330;2023-10-13T04:29:36;10.27;;;5.88;;
3549;SDS011;45572;48.804;8.330;2023-10-13T04:32:17;8.48;;;4.68;;
3549;SDS011;45572;48.804;8.330;2023-10-13T04:34:56;9.60;;;4.90;;
3549;SDS011;45572;48.804;8.330;2023-10-13T04:37:34;12.68;;;6.15;;
3549;SDS011;45572;48.804;8.330;2023-10-13T04:40:17;11.77;;;4.93;;
3549;SDS011;45572;48.804;8.330;2023-10-13T04:42:50;11.63;;;4.95;;
3549;SDS011;45572;48.804;8.330;2023-10-13T04:45:20;12.80;;;5.05;;
3549;SDS011;45572;48.804;8.330;2023-10-13T04:48:02;9.93;;;4.40;;
3549;SDS011;45572;48.804;8.330;2023-10-13T04:50:46;9.48;;;5.45;;
3549;SDS011;45572;48.804;8.330;2023-10-13T04:53:17;9.13;;;5.00;;
3549;SDS011;45572;48.804;8.330;2023-10-13T04:55:59;11.82;;;5.13;;
3549;SDS011;45572;48.804;8.330;2023-10-13T04:58:55;7.90;;;4.47;;
3549;SDS011;45572;48.804;8.330;2023-10-13T05:01:37;9.15;;;5.28;;
3549;SDS011;45572;48.804;8.330;2023-10-13T05:04:37;16.20;;;5.28;;
3549;SDS011;45572;48.804;8.330;2023-10-13T05:07:06;8.90;;;5.30;;
3549;SDS011;45572;48.804;8.330;2023-10-13T05:09:48;10.57;;;5.05;;
3549;SDS011;45572;48.804;8.330;2023-10-13T05:12:30;9.80;;;5.53;;
3549;SDS011;45572;48.804;8.330;2023-10-13T05:15:12;10.60;;;5.20;;
3549;SDS011;45572;48.804;8.330;2023-10-13T05:17:53;19.15;;;6.22;;
3549;SDS011;45572;48.804;8.330;2023-10-13T05:20:35;13.57;;;5.10;;
3549;SDS011;45572;48.804;8.330;2023-10-13T05:23:18;14.02;;;6.60;;
3549;SDS011;45572;48.804;8.330;2023-10-13T05:26:01;12.65;;;5.25;;
3549;SDS011;45572;48.804;8.330;2023-10-13T05:28:43;10.55;;;5.75;;
3549;SDS011;45572;48.804;8.330;2023-10-13T05:31:25;12.40;;;5.55;;
3549;SDS011;45572;48.804;8.330;2023-10-13T05:34:07;11.48;;;6.03;;
3549;SDS011;45572;48.804;8.330;2023-10-13T05:36:49;10.35;;;6.30;;
3549;SDS011;45572;48.804;8.330;2023-10-13T05:39:32;9.18;;;5.38;;
3549;SDS011;45572;48.804;8.330;2023-10-13T05:42:14;10.68;;;4.85;;
3549;SDS011;45572;48.804;8.330;2023-10-13T05:44:56;10.52;;;4.97;;
3549;SDS011;45572;48.804;8.330;2023-10-13T05:47:44;6.55;;;4.20;;
3549;SDS011;45572;48.804;8.330;2023-10-13T05:50:27;14.95;;;5.35;;
3549;SDS011;45572;48.804;8.330;2023-10-13T05:53:16;12.05;;;7.00;;
3549;SDS011;45572;48.804;8.330;2023-10-13T05:56:01;10.15;;;5.13;;
3549;SDS011;45572;48.804;8.330;2023-10-13T05:58:45;12.45;;;5.38;;
3549;SDS011;45572;48.804;8.330;2023-10-13T06:01:27;7.85;;;4.78;;
3549;SDS011;45572;48.804;8.330;2023-10-13T06:04:09;11.95;;;5.75;;
3549;SDS011;45572;48.804;8.330;2023-10-13T06:06:51;7.03;;;4.55;;
3549;SDS011;45572;48.804;8.330;2023-10-13T06:09:32;6.55;;;4.35;;
3549;SDS011;45572;48.804;8.330;2023-10-13T06:12:15;9.05;;;5.10;;
3549;SDS011;45572;48.804;8.330;2023-10-13T06:14:57;11.35;;;6.78;;
3549;SDS011;45572;48.804;8.330;2023-10-13T06:17:39;18.00;;;5.30;;
3549;SDS011;45572;48.804;8.330;2023-10-13T06:20:21;8.48;;;5.20;;
3549;SDS011;45572;48.804;8.330;2023-10-13T06:23:03;9.27;;;6.65;;
3549;SDS011;45572;48.804;8.330;2023-10-13T06:25:49;10.80;;;5.50;;
3549;SDS011;45572;48.804;8.330;2023-10-13T06:28:33;8.20;;;4.78;;
3549;SDS011;45572;48.804;8.330;2023-10-13T06:31:08;6.47;;;4.70;;
3549;SDS011;45572;48.804;8.330;2023-10-13T06:33:47;10.55;;;5.78;;
3549;SDS011;45572;48.804;8.330;2023-10-13T06:36:16;8.90;;;5.50;;
3549;SDS011;45572;48.804;8.330;2023-10-13T06:38:45;18.88;;;6.85;;
3549;SDS011;45572;48.804;8.330;2023-10-13T06:41:21;10.35;;;4.68;;
3549;SDS011;45572;48.804;8.330;2023-10-13T06:43:58;15.63;;;5.78;;
3549;SDS011;45572;48.804;8.330;2023-10-13T06:46:27;11.13;;;5.20;;
3549;SDS011;45572;48.804;8.330;2023-10-13T06:48:56;10.85;;;5.75;;
3549;SDS011;45572;48.804;8.330;2023-10-13T06:51:26;8.32;;;5.60;;
3549;SDS011;45572;48.804;8.330;2023-10-13T06:53:57;11.30;;;5.07;;
3549;SDS011;45572;48.804;8.330;2023-10-13T06:56:31;11.10;;;5.37;;
3549;SDS011;45572;48.804;8.330;2023-10-13T06:59:07;14.63;;;5.73;;
3549;SDS011;45572;48.804;8.330;2023-10-13T07:01:34;11.50;;;6.47;;
3549;SDS011;45572;48.804;8.330;2023-10-13T07:04:06;8.80;;;4.33;;
3549;SDS011;45572;48.804;8.330;2023-10-13T07:06:40;12.33;;;5.63;;
3549;SDS011;45572;48.804;8.330;2023-10-13T07:09:14;9.43;;;4.93;;
3549;SDS011;45572;48.804;8.330;2023-10-13T07:11:58;6.93;;;4.43;;
3549;SDS011;45572;48.804;8.330;2023-10-13T07:14:28;9.53;;;6.00;;
3549;SDS011;45572;48.804;8.330;2023-10-13T07:17:00;12.00;;;4.90;;
3549;SDS011;45572;48.804;8.330;2023-10-13T07:19:30;8.77;;;4.50;;
3549;SDS011;45572;48.804;8.330;2023-10-13T07:22:01;7.90;;;5.00;;
3549;SDS011;45572;48.804;8.330;2023-10-13T07:24:45;11.37;;;4.60;;
3549;SDS011;45572;48.804;8.330;2023-10-13T07:27:15;8.67;;;4.23;;
3549;SDS011;45572;48.804;8.330;2023-10-13T07:29:50;8.33;;;4.47;;
3549;SDS011;45572;48.804;8.330;2023-10-13T07:32:39;8.23;;;4.57;;
3549;SDS011;45572;48.804;8.330;2023-10-13T07:35:14;7.10;;;3.50;;
3549;SDS011;45572;48.804;8.330;2023-10-13T07:37:44;7.80;;;4.20;;
3549;SDS011;45572;48.804;8.330;2023-10-13T07:40:15;4.57;;;3.43;;
3549;SDS011;45572;48.804;8.330;2023-10-13T07:43:05;10.20;;;3.83;;
3549;SDS011;45572;48.804;8.330;2023-10-13T07:45:38;5.43;;;3.60;;
3549;SDS011;45572;48.804;8.330;2023-10-13T07:48:07;12.57;;;3.93;;
3549;SDS011;45572;48.804;8.330;2023-10-13T07:50:43;3.33;;;2.77;;
3549;SDS011;45572;48.804;8.330;2023-10-13T07:53:12;6.90;;;3.90;;
3549;SDS011;45572;48.804;8.330;2023-10-13T07:55:49;7.50;;;3.60;;
3549;SDS011;45572;48.804;8.330;2023-10-13T07:58:22;7.20;;;4.03;;
3549;SDS011;45572;48.804;8.330;2023-10-13T08:00:53;4.83;;;3.40;;
3549;SDS011;45572;48.804;8.330;2023-10-13T08:03:33;8.33;;;4.33;;
3549;SDS011;45572;48.804;8.330;2023-10-13T08:06:15;7.00;;;4.10;;
3549;SDS011;45572;48.804;8.330;2023-10-13T08:08:47;4.63;;;3.37;;
3549;SDS011;45572;48.804;8.330;2023-10-13T08:11:19;11.13;;;4.23;;
3549;SDS011;45572;48.804;8.330;2023-10-13T08:14:01;6.03;;;3.20;;
3549;SDS011;45572;48.804;8.330;2023-10-13T08:17:05;9.00;;;4.60;;
3549;SDS011;45572;48.804;8.330;2023-10-13T08:19:36;8.77;;;4.30;;
3549;SDS011;45572;48.804;8.330;2023-10-13T08:22:11;9.90;;;4.70;;
3549;SDS011;45572;48.804;8.330;2023-10-13T08:24:53;10.73;;;4.83;;
3549;SDS011;45572;48.804;8.330;2023-10-13T08:27:46;8.80;;;4.80;;
3549;SDS011;45572;48.804;8.330;2023-10-13T08:30:17;7.60;;;4.23;;
3549;SDS011;45572;48.804;8.330;2023-10-13T08:33:00;11.83;;;4.40;;
3549;SDS011;45572;48.804;8.330;2023-10-13T08:35:43;8.43;;;4.80;;
3549;SDS011;45572;48.804;8.330;2023-10-13T08:38:31;8.40;;;4.10;;
3549;SDS011;45572;48.804;8.330;2023-10-13T08:41:17;8.47;;;3.30;;
3549;SDS011;45572;48.804;8.330;2023-10-13T08:44:01;11.57;;;3.37;;
3549;SDS011;45572;48.804;8.330;2023-10-13T08:46:31;6.67;;;3.13;;
3549;SDS011;45572;48.804;8.330;2023-10-13T08:49:19;6.40;;;3.40;;
3549;SDS011;45572;48.804;8.330;2023-10-13T08:51:50;4.37;;;3.23;;
3549;SDS011;45572;48.804;8.330;2023-10-13T08:54:32;5.87;;;2.90;;
3549;SDS011;45572;48.804;8.330;2023-10-13T08:57:05;5.57;;;2.93;;
3549;SDS011;45572;48.804;8.330;2023-10-13T08:59:47;4.50;;;4.00;;
3549;SDS011;45572;48.804;8.330;2023-10-13T09:02:22;6.73;;;2.87;;
3549;SDS011;45572;48.804;8.330;2023-10-13T09:05:11;6.27;;;2.60;;
3549;SDS011;45572;48.804;8.330;2023-10-13T09:07:53;5.63;;;2.40;;
3549;SDS011;45572;48.804;8.330;2023-10-13T09:10:34;4.67;;;3.20;;
3549;SDS011;45572;48.804;8.330;2023-10-13T09:13:11;4.07;;;2.67;;
3549;SDS011;45572;48.804;8.330;2023-10-13T09:15:45;4.53;;;2.50;;
3549;SDS011;45572;48.804;8.330;2023-10-13T09:18:28;4.30;;;2.83;;
3549;SDS011;45572;48.804;8.330;2023-10-13T09:21:11;5.20;;;2.60;;
3549;SDS011;45572;48.804;8.330;2023-10-13T09:23:54;4.17;;;2.27;;
3549;SDS011;45572;48.804;8.330;2023-10-13T09:26:41;5.37;;;2.60;;
3549;SDS011;45572;48.804;8.330;2023-10-13T09:29:16;4.70;;;1.97;;
3549;SDS011;45572;48.804;8.330;2023-10-13T09:31:46;4.80;;;3.07;;
3549;SDS011;45572;48.804;8.330;2023-10-13T09:34:22;2.73;;;2.50;;
3549;SDS011;45572;48.804;8.330;2023-10-13T09:36:58;4.37;;;2.50;;
3549;SDS011;45572;48.804;8.330;2023-10-13T09:39:26;5.30;;;2.57;;
3549;SDS011;45572;48.804;8.330;2023-10-13T09:42:01;6.40;;;2.77;;
3549;SDS011;45572;48.804;8.330;2023-10-13T09:44:29;5.10;;;2.70;;
3549;SDS011;45572;48.804;8.330;2023-10-13T09:47:00;3.93;;;2.20;;
3549;SDS011;45572;48.804;8.330;2023-10-13T09:49:37;4.83;;;2.03;;
3549;SDS011;45572;48.804;8.330;2023-10-13T09:52:15;4.80;;;2.20;;
3549;SDS011;45572;48.804;8.330;2023-10-13T09:54:50;6.83;;;2.30;;
3549;SDS011;45572;48.804;8.330;2023-10-13T09:57:36;6.23;;;2.90;;
3549;SDS011;45572;48.804;8.330;2023-10-13T10:00:11;4.60;;;2.40;;
3549;SDS011;45572;48.804;8.330;2023-10-13T10:02:55;4.40;;;2.60;;
3549;SDS011;45572;48.804;8.330;2023-10-13T10:05:25;4.37;;;3.00;;
3549;SDS011;45572;48.804;8.330;2023-10-13T10:07:55;5.40;;;2.63;;
3549;SDS011;45572;48.804;8.330;2023-10-13T10:10:26;7.50;;;3.60;;
3549;SDS011;45572;48.804;8.330;2023-10-13T10:13:13;5.90;;;2.67;;
3549;SDS011;45572;48.804;8.330;2023-10-13T10:15:49;5.50;;;3.33;;
3549;SDS011;45572;48.804;8.330;2023-10-13T10:18:21;7.87;;;3.23;;
3549;SDS011;45572;48.804;8.330;2023-10-13T10:21:02;16.50;;;4.03;;
3549;SDS011;45572;48.804;8.330;2023-10-13T10:23:35;3.63;;;2.20;;
3549;SDS011;45572;48.804;8.330;2023-10-13T10:26:09;4.43;;;2.30;;
3549;SDS011;45572;48.804;8.330;2023-10-13T10:28:41;6.57;;;2.00;;
3549;SDS011;45572;48.804;8.330;2023-10-13T10:31:10;6.37;;;2.30;;
3549;SDS011;45572;48.804;8.330;2023-10-13T10:33:41;5.27;;;2.37;;
3549;SDS011;45572;48.804;8.330;2023-10-13T10:36:10;5.33;;;2.17;;
3549;SDS011;45572;48.804;8.330;2023-10-13T10:41:26;5.43;;;2.93;;
3549;SDS011;45572;48.804;8.330;2023-10-13T10:44:09;3.57;;;2.33;;
3549;SDS011;45572;48.804;8.330;2023-10-13T10:46:42;4.00;;;2.70;;
3549;SDS011;45572;48.804;8.330;2023-10-13T10:49:18;6.50;;;2.13;;
3549;SDS011;45572;48.804;8.330;2023-10-13T10:51:55;2.40;;;2.00;;
3549;SDS011;45572;48.804;8.330;2023-10-13T10:54:31;6.10;;;2.27;;
3549;SDS011;45572;48.804;8.330;2023-10-13T10:56:59;2.80;;;2.10;;
3549;SDS011;45572;48.804;8.330;2023-10-13T10:59:38;7.27;;;2.13;;
3549;SDS011;45572;48.804;8.330;2023-10-13T11:02:07;5.30;;;2.83;;
3549;SDS011;45572;48.804;8.330;2023-10-13T11:04:39;5.07;;;1.97;;
3549;SDS011;45572;48.804;8.330;2023-10-13T11:07:20;3.63;;;2.40;;
3549;SDS011;45572;48.804;8.330;2023-10-13T11:09:51;11.10;;;2.83;;
3549;SDS011;45572;48.804;8.330;2023-10-13T11:12:32;5.87;;;2.07;;
3549;SDS011;45572;48.804;8.330;2023-10-13T11:15:02;13.40;;;2.73;;
3549;SDS011;45572;48.804;8.330;2023-10-13T11:17:40;7.20;;;2.77;;
3549;SDS011;45572;48.804;8.330;2023-10-13T11:20:10;7.43;;;2.33;;
3549;SDS011;45572;48.804;8.330;2023-10-13T11:22:46;2.93;;;2.00;;
3549;SDS011;45572;48.804;8.330;2023-10-13T11:25:21;5.30;;;2.00;;
3549;SDS011;45572;48.804;8.330;2023-10-13T11:27:56;4.03;;;2.53;;
3549;SDS011;45572;48.804;8.330;2023-10-13T11:30:26;5.33;;;2.30;;
3549;SDS011;45572;48.804;8.330;2023-10-13T11:33:08;3.43;;;2.07;;
3549;SDS011;45572;48.804;8.330;2023-10-13T11:35:38;3.10;;;2.30;;
3549;SDS011;45572;48.804;8.330;2023-10-13T11:38:21;5.77;;;2.27;;
3549;SDS011;45572;48.804;8.330;2023-10-13T11:40:57;6.77;;;2.50;;
3549;SDS011;45572;48.804;8.330;2023-10-13T11:43:35;5.47;;;2.50;;
3549;SDS011;45572;48.804;8.330;2023-10-13T11:46:20;6.40;;;2.73;;
3549;SDS011;45572;48.804;8.330;2023-10-13T11:49:04;10.23;;;3.00;;
3549;SDS011;45572;48.804;8.330;2023-10-13T11:51:44;9.83;;;2.90;;
3549;SDS011;45572;48.804;8.330;2023-10-13T11:54:15;23.33;;;3.40;;
3549;SDS011;45572;48.804;8.330;2023-10-13T11:56:46;4.30;;;3.20;;
3549;SDS011;45572;48.804;8.330;2023-10-13T11:59:16;6.47;;;2.80;;
3549;SDS011;45572;48.804;8.330;2023-10-13T12:01:45;4.67;;;2.80;;
3549;SDS011;45572;48.804;8.330;2023-10-13T12:04:27;12.83;;;2.83;;
3549;SDS011;45572;48.804;8.330;2023-10-13T12:07:00;13.70;;;4.03;;
3549;SDS011;45572;48.804;8.330;2023-10-13T12:09:40;10.60;;;3.53;;
3549;SDS011;45572;48.804;8.330;2023-10-13T12:12:20;8.73;;;4.07;;
3549;SDS011;45572;48.804;8.330;2023-10-13T12:14:48;11.50;;;3.80;;
3549;SDS011;45572;48.804;8.330;2023-10-13T12:17:24;9.23;;;2.80;;
3549;SDS011;45572;48.804;8.330;2023-10-13T12:20:00;8.83;;;3.63;;
3549;SDS011;45572;48.804;8.330;2023-10-13T12:22:31;6.60;;;3.10;;
3549;SDS011;45572;48.804;8.330;2023-10-13T12:25:05;7.00;;;3.43;;
3549;SDS011;45572;48.804;8.330;2023-10-13T12:27:46;6.40;;;2.90;;
3549;SDS011;45572;48.804;8.330;2023-10-13T12:30:17;5.27;;;2.70;;
3549;SDS011;45572;48.804;8.330;2023-10-13T12:33:02;13.97;;;7.67;;
3549;SDS011;45572;48.804;8.330;2023-10-13T12:35:35;12.93;;;6.70;;
3549;SDS011;45572;48.804;8.330;2023-10-13T12:38:11;6.57;;;3.63;;
3549;SDS011;45572;48.804;8.330;2023-10-13T12:41:04;6.97;;;4.13;;
3549;SDS011;45572;48.804;8.330;2023-10-13T12:44:02;5.20;;;2.60;;
3549;SDS011;45572;48.804;8.330;2023-10-13T12:46:45;5.67;;;2.60;;
3549;SDS011;45572;48.804;8.330;2023-10-13T12:49:27;8.20;;;3.03;;
3549;SDS011;45572;48.804;8.330;2023-10-13T12:52:15;8.60;;;3.50;;
3549;SDS011;45572;48.804;8.330;2023-10-13T12:54:46;5.83;;;2.60;;
3549;SDS011;45572;48.804;8.330;2023-10-13T12:57:25;7.00;;;2.43;;
3549;SDS011;45572;48.804;8.330;2023-10-13T12:59:55;6.30;;;2.90;;
3549;SDS011;45572;48.804;8.330;2023-10-13T13:02:24;7.37;;;2.97;;
3549;SDS011;45572;48.804;8.330;2023-10-13T13:04:53;6.47;;;2.83;;
3549;SDS011;45572;48.804;8.330;2023-10-13T13:07:32;6.27;;;2.77;;
3549;SDS011;45572;48.804;8.330;2023-10-13T13:10:10;8.67;;;2.93;;
3549;SDS011;45572;48.804;8.330;2023-10-13T13:12:40;4.93;;;2.40;;
3549;SDS011;45572;48.804;8.330;2023-10-13T13:15:09;4.67;;;2.83;;
3549;SDS011;45572;48.804;8.330;2023-10-13T13:17:39;7.77;;;2.50;;
3549;SDS011;45572;48.804;8.330;2023-10-13T13:20:08;4.07;;;2.63;;
3549;SDS011;45572;48.804;8.330;2023-10-13T13:22:52;4.57;;;3.23;;
3549;SDS011;45572;48.804;8.330;2023-10-13T13:25:21;4.40;;;2.50;;
3549;SDS011;45572;48.804;8.330;2023-10-13T13:27:52;5.13;;;2.53;;
3549;SDS011;45572;48.804;8.330;2023-10-13T13:30:21;7.43;;;3.10;;
3549;SDS011;45572;48.804;8.330;2023-10-13T13:32:56;7.00;;;3.70;;
3549;SDS011;45572;48.804;8.330;2023-10-13T13:35:30;4.23;;;2.33;;
3549;SDS011;45572;48.804;8.330;2023-10-13T13:38:01;5.17;;;3.00;;
3549;SDS011;45572;48.804;8.330;2023-10-13T13:40:37;9.90;;;3.20;;
3549;SDS011;45572;48.804;8.330;2023-10-13T13:43:05;6.77;;;3.27;;
3549;SDS011;45572;48.804;8.330;2023-10-13T13:45:35;9.50;;;3.07;;
3549;SDS011;45572;48.804;8.330;2023-10-13T13:48:08;6.67;;;3.17;;
3549;SDS011;45572;48.804;8.330;2023-10-13T13:50:43;8.40;;;4.63;;
3549;SDS011;45572;48.804;8.330;2023-10-13T13:53:18;9.10;;;4.73;;
3549;SDS011;45572;48.804;8.330;2023-10-13T13:55:53;7.33;;;3.23;;
3549;SDS011;45572;48.804;8.330;2023-10-13T13:58:21;7.30;;;2.57;;
3549;SDS011;45572;48.804;8.330;2023-10-13T14:00:58;5.40;;;2.67;;
3549;SDS011;45572;48.804;8.330;2023-10-13T14:03:27;6.47;;;3.07;;
3549;SDS011;45572;48.804;8.330;2023-10-13T14:05:59;9.13;;;3.00;;
3549;SDS011;45572;48.804;8.330;2023-10-13T14:08:27;7.90;;;2.73;;
3549;SDS011;45572;48.804;8.330;2023-10-13T14:10:56;3.73;;;2.63;;
3549;SDS011;45572;48.804;8.330;2023-10-13T14:13:38;4.17;;;2.83;;
3549;SDS011;45572;48.804;8.330;2023-10-13T14:16:23;6.77;;;3.07;;
3549;SDS011;45572;48.804;8.330;2023-10-13T14:18:51;5.43;;;2.80;;
3549;SDS011;45572;48.804;8.330;2023-10-13T14:21:19;7.33;;;3.80;;
3549;SDS011;45572;48.804;8.330;2023-10-13T14:23:50;5.80;;;2.37;;
3549;SDS011;45572;48.804;8.330;2023-10-13T14:26:20;5.00;;;2.87;;
3549;SDS011;45572;48.804;8.330;2023-10-13T14:28:52;8.70;;;2.40;;
3549;SDS011;45572;48.804;8.330;2023-10-13T14:31:30;6.43;;;2.90;;
3549;SDS011;45572;48.804;8.330;2023-10-13T14:33:59;7.60;;;2.60;;
3549;SDS011;45572;48.804;8.330;2023-10-13T14:36:27;6.83;;;2.70;;
3549;SDS011;45572;48.804;8.330;2023-10-13T14:38:55;7.07;;;2.40;;
3549;SDS011;45572;48.804;8.330;2023-10-13T14:41:24;6.43;;;2.50;;
3549;SDS011;45572;48.804;8.330;2023-10-13T14:43:53;3.60;;;2.13;;
3549;SDS011;45572;48.804;8.330;2023-10-13T14:46:24;8.37;;;2.13;;
3549;SDS011;45572;48.804;8.330;2023-10-13T14:48:54;4.37;;;2.63;;
3549;SDS011;45572;48.804;8.330;2023-10-13T14:51:22;3.80;;;2.40;;
3549;SDS011;45572;48.804;8.330;2023-10-13T14:53:51;6.70;;;2.10;;
3549;SDS011;45572;48.804;8.330;2023-10-13T14:56:22;2.47;;;2.03;;
3549;SDS011;45572;48.804;8.330;2023-10-13T14:58:52;6.27;;;2.97;;
3549;SDS011;45572;48.804;8.330;2023-10-13T15:01:21;5.30;;;2.53;;
3549;SDS011;45572;48.804;8.330;2023-10-13T15:03:54;7.83;;;2.53;;
3549;SDS011;45572;48.804;8.330;2023-10-13T15:06:24;8.83;;;2.30;;
3549;SDS011;45572;48.804;8.330;2023-10-13T15:08:55;3.07;;;1.57;;
3549;SDS011;45572;48.804;8.330;2023-10-13T15:11:24;7.50;;;1.97;;
3549;SDS011;45572;48.804;8.330;2023-10-13T15:13:54;5.07;;;2.30;;
3549;SDS011;45572;48.804;8.330;2023-10-13T15:16:23;6.37;;;3.10;;
3549;SDS011;45572;48.804;8.330;2023-10-13T15:18:55;7.03;;;2.63;;
3549;SDS011;45572;48.804;8.330;2023-10-13T15:21:25;7.20;;;2.27;;
3549;SDS011;45572;48.804;8.330;2023-10-13T15:23:56;6.70;;;2.70;;
3549;SDS011;45572;48.804;8.330;2023-10-13T15:26:25;5.30;;;2.70;;
3549;SDS011;45572;48.804;8.330;2023-10-13T15:28:53;3.83;;;1.93;;
3549;SDS011;45572;48.804;8.330;2023-10-13T15:31:22;7.47;;;2.83;;
3549;SDS011;45572;48.804;8.330;2023-10-13T15:33:52;11.13;;;2.23;;
3549;SDS011;45572;48.804;8.330;2023-10-13T15:36:23;4.00;;;2.40;;
3549;SDS011;45572;48.804;8.330;2023-10-13T15:38:51;4.90;;;2.27;;
3549;SDS011;45572;48.804;8.330;2023-10-13T15:41:21;4.20;;;2.47;;
3549;SDS011;45572;48.804;8.330;2023-10-13T15:43:53;4.73;;;2.17;;
3549;SDS011;45572;48.804;8.330;2023-10-13T15:46:21;3.40;;;2.47;;